Time;durP1;ratioP1;P1;durP2;ratioP2;P2;SDS_P1;SDS_P2;PMS_P1;PMS_P2;Temp;Humidity;BMP_temperature;BMP_pressure;BME280_temperature;BME280_humidity;BME280_pressure;Samples;Min_cycle;Max_cycle;Signal;HPM_P1;HPM_P2
2022/05/18 00:00:31;;;;;;;8.17;6.10;;;16.60;77.80;;;15.66;70.03;98471.53;5064503;28;20469;-74
2022/05/18 00:03:03;;;;;;;7.87;5.87;;;16.60;77.90;;;15.69;69.75;98490.13;5056289;28;20445;-72
2022/05/18 00:05:31;;;;;;;7.10;5.67;;;16.60;77.80;;;15.54;69.95;98472.41;5055523;28;20484;-73
2022/05/18 00:08:01;;;;;;;6.00;5.40;;;16.60;78.00;;;15.63;70.23;98491.09;5053952;28;20446;-74
2022/05/18 00:10:28;;;;;;;5.97;5.40;;;16.60;77.90;;;15.53;70.35;98473.44;5054231;28;20433;-73
2022/05/18 00:12:56;;;;;;;7.67;6.03;;;16.60;78.00;;;15.41;71.19;98475.34;5055147;28;20441;-73
2022/05/18 00:15:27;;;;;;;5.60;5.10;;;16.50;78.20;;;15.51;71.26;98474.75;5055417;28;20549;-73
2022/05/18 00:17:55;;;;;;;8.93;6.37;;;16.40;78.70;;;15.56;71.12;98483.88;5054787;28;20873;-73
2022/05/18 00:20:23;;;;;;;6.53;5.90;;;16.50;78.50;;;15.59;70.69;98488.00;5054663;28;20848;-73
2022/05/18 00:22:55;;;;;;;6.53;5.93;;;16.50;78.40;;;15.46;70.54;98491.78;5055086;28;20441;-72
2022/05/18 00:25:26;;;;;;;9.00;6.47;;;16.50;78.30;;;15.51;71.00;98493.81;5055084;28;20491;-72
2022/05/18 00:27:53;;;;;;;7.40;6.70;;;16.50;78.60;;;15.49;70.92;98494.03;5055449;28;20425;-72
2022/05/18 00:30:25;;;;;;;8.10;5.73;;;16.40;78.50;;;15.44;70.90;98488.47;5054818;28;20484;-73
2022/05/18 00:32:52;;;;;;;6.30;5.70;;;16.40;78.60;;;15.14;71.66;98481.22;5055166;28;20443;-71
2022/05/18 00:35:22;;;;;;;6.87;6.27;;;16.20;78.80;;;15.18;72.54;98492.47;5054778;28;20503;-70
2022/05/18 00:37:50;;;;;;;6.43;5.80;;;16.20;79.40;;;15.13;72.25;98482.28;5053273;28;20476;-71
2022/05/18 00:40:20;;;;;;;6.20;5.67;;;16.20;79.50;;;15.20;72.07;98493.88;5053240;28;20904;-70
2022/05/18 00:42:47;;;;;;;7.50;5.83;;;16.20;79.60;;;15.13;72.50;98501.34;5054046;28;20451;-71
2022/05/18 00:45:17;;;;;;;7.63;6.50;;;16.10;79.50;;;15.16;72.10;98500.88;5053626;28;20475;-71
2022/05/18 00:47:46;;;;;;;6.27;5.27;;;16.10;79.40;;;15.07;72.32;98494.09;5055581;28;20931;-71
2022/05/18 00:50:17;;;;;;;6.60;6.03;;;16.10;79.70;;;15.02;72.17;98490.19;5053600;28;20467;-72
2022/05/18 00:52:50;;;;;;;7.40;6.57;;;16.10;79.70;;;15.11;72.44;98487.16;5054371;28;20449;-71
2022/05/18 00:55:21;;;;;;;6.80;6.20;;;16.10;79.90;;;15.06;72.89;98497.88;5036841;28;20477;-72
2022/05/18 00:57:55;;;;;;;8.30;6.27;;;16.00;80.10;;;14.91;73.03;98474.66;5069431;28;20444;-70
2022/05/18 01:00:23;;;;;;;6.80;6.23;;;16.00;80.30;;;14.95;73.10;98494.06;5054769;28;20497;-70
2022/05/18 01:02:56;;;;;;;6.43;5.93;;;15.90;80.30;;;14.79;73.64;98503.75;5054233;28;20464;-72
2022/05/18 01:05:30;;;;;;;7.27;6.57;;;15.80;80.60;;;14.75;73.74;98502.53;5054694;28;20470;-72
2022/05/18 01:07:59;;;;;;;7.00;6.40;;;15.70;80.70;;;14.68;74.08;98503.41;5069619;28;20475;-72
2022/05/18 01:10:29;;;;;;;7.60;6.80;;;15.70;81.20;;;14.54;74.87;98510.91;5069164;28;20918;-72
2022/05/18 01:12:56;;;;;;;9.60;7.10;;;15.60;81.60;;;14.50;75.13;98495.31;5052765;28;20442;-72
2022/05/18 01:15:24;;;;;;;8.90;6.57;;;15.50;81.80;;;14.47;74.92;98512.06;5054163;28;20501;-72
2022/05/18 01:17:58;;;;;;;7.60;7.00;;;15.50;82.00;;;14.50;74.44;98501.56;5054084;28;20563;-72
2022/05/18 01:20:30;;;;;;;7.53;6.83;;;15.50;81.90;;;14.49;75.04;98504.53;5069751;28;20461;-70
2022/05/18 01:23:28;;;;;;;7.60;6.80;;;15.50;82.00;;;14.47;75.69;98512.06;5054438;28;20457;-71
2022/05/18 01:26:10;;;;;;;9.73;8.70;;;15.40;82.50;;;14.58;74.87;98505.84;5052848;28;20940;-71
2022/05/18 01:28:42;;;;;;;9.10;8.17;;;15.50;82.30;;;14.58;74.78;98500.41;5052586;28;20503;-71
2022/05/18 01:31:10;;;;;;;11.13;8.17;;;15.60;82.20;;;14.67;74.80;98511.81;5052232;28;20449;-72
2022/05/18 01:33:37;;;;;;;10.47;7.70;;;15.60;82.20;;;14.59;74.87;98507.50;5053682;28;20911;-71
2022/05/18 01:36:06;;;;;;;9.53;7.30;;;15.60;82.30;;;14.61;75.08;98510.81;5054020;28;20448;-72
2022/05/18 01:38:35;;;;;;;7.93;7.23;;;15.60;82.40;;;14.62;75.09;98508.94;5053717;28;20440;-72
2022/05/18 01:41:10;;;;;;;7.83;7.20;;;15.60;82.80;;;14.59;74.93;98510.22;5053732;28;20471;-73
2022/05/18 01:43:43;;;;;;;8.43;7.63;;;15.60;82.30;;;14.53;75.26;98509.25;5053922;28;20484;-72
2022/05/18 01:46:14;;;;;;;9.50;7.20;;;15.60;82.40;;;14.79;73.99;98518.16;5052444;28;20545;-72
2022/05/18 01:48:45;;;;;;;8.60;7.17;;;15.70;82.10;;;14.78;74.24;98515.66;5052930;28;20435;-71
2022/05/18 01:51:23;;;;;;;7.60;6.60;;;15.70;82.10;;;14.55;74.33;98509.84;5053412;28;20772;-70
2022/05/18 01:53:50;;;;;;;6.80;6.30;;;15.60;82.00;;;14.51;74.52;98505.13;5052375;28;20532;-71
2022/05/18 01:56:17;;;;;;;8.07;7.37;;;15.60;82.30;;;14.64;74.41;98518.53;5052851;28;20471;-71
2022/05/18 01:58:46;;;;;;;8.47;7.57;;;15.60;82.30;;;14.67;74.88;98512.63;5053571;28;20444;-72
2022/05/18 02:01:13;;;;;;;8.33;7.53;;;15.60;82.30;;;14.71;74.50;98513.03;5053735;28;20935;-71
2022/05/18 02:03:41;;;;;;;7.73;7.03;;;15.70;82.40;;;14.54;75.44;98518.25;5069960;28;20484;-72
2022/05/18 02:06:08;;;;;;;7.20;6.60;;;15.50;82.60;;;14.55;75.33;98522.63;5057921;28;20456;-71
2022/05/18 02:08:35;;;;;;;8.40;7.20;;;15.50;83.10;;;14.47;76.16;98531.94;5056242;28;20528;-72
2022/05/18 02:11:02;;;;;;;9.40;7.40;;;15.50;83.50;;;14.51;75.03;98524.97;5056079;28;20472;-72
2022/05/18 02:13:29;;;;;;;8.60;7.80;;;15.50;83.00;;;14.59;74.96;98529.25;5057402;28;20433;-72
2022/05/18 02:15:58;;;;;;;7.47;6.80;;;15.50;82.80;;;14.54;74.94;98518.25;5056100;28;20442;-72
2022/05/18 02:18:25;;;;;;;10.30;7.90;;;15.60;82.80;;;14.62;75.05;98525.25;5055959;28;20503;-72
2022/05/18 02:20:52;;;;;;;8.73;7.93;;;15.60;82.80;;;14.58;74.89;98530.31;5056947;28;20444;-73
2022/05/18 02:23:19;;;;;;;7.83;7.13;;;15.60;82.90;;;14.59;75.06;98524.66;5057743;28;20771;-72
2022/05/18 02:25:46;;;;;;;8.53;7.93;;;15.60;82.90;;;14.38;75.42;98508.81;5057237;28;20562;-73
2022/05/18 02:28:13;;;;;;;8.30;7.50;;;15.60;83.00;;;14.52;76.07;98525.81;5055964;28;20498;-73
2022/05/18 02:30:41;;;;;;;8.60;7.80;;;15.50;83.50;;;14.57;75.60;98520.50;5057106;28;20920;-72
2022/05/18 02:33:10;;;;;;;8.30;7.53;;;15.50;83.60;;;14.73;74.78;98525.34;5072348;28;21009;-72
2022/05/18 02:35:40;;;;;;;7.93;7.23;;;15.60;83.30;;;14.75;74.84;98521.56;5055778;28;20940;-73
2022/05/18 02:38:09;;;;;;;8.13;7.43;;;15.70;83.10;;;14.84;74.54;98529.16;5056100;28;20487;-73
2022/05/18 02:40:36;;;;;;;9.17;8.27;;;15.70;82.80;;;14.78;74.47;98531.97;5057562;28;20830;-73
2022/05/18 02:43:04;;;;;;;9.03;8.13;;;15.80;82.80;;;14.68;74.89;98527.91;5057016;28;20488;-73
2022/05/18 02:45:31;;;;;;;8.97;7.43;;;15.70;82.80;;;14.87;74.12;98527.88;5072182;28;20564;-73
2022/05/18 02:47:58;;;;;;;8.30;7.70;;;15.80;82.80;;;14.98;73.73;98532.53;5057143;28;20539;-72
2022/05/18 02:50:28;;;;;;;8.67;7.67;;;15.90;82.80;;;14.92;74.35;98533.44;5061520;28;20472;-72
2022/05/18 02:52:55;;;;;;;9.13;8.27;;;15.90;82.80;;;14.85;74.23;98536.25;5060291;28;20455;-72
2022/05/18 02:58:07;;;;;;;8.20;7.33;;;15.90;82.50;;;14.97;73.98;98555.38;5072128;28;20792;-72
2022/05/18 03:00:34;;;;;;;7.97;7.37;;;15.90;82.50;;;15.04;74.12;98554.44;5072435;28;20445;-72
2022/05/18 03:03:01;;;;;;;8.40;7.70;;;15.90;82.60;;;15.00;73.93;98552.19;5057066;28;20490;-70
2022/05/18 03:05:30;;;;;;;8.63;7.83;;;15.90;82.60;;;14.98;74.33;98559.75;5055008;28;20465;-70
2022/05/18 03:07:58;;;;;;;8.80;8.00;;;15.90;82.40;;;14.93;74.35;98565.03;5056398;28;20547;-70
2022/05/18 03:10:25;;;;;;;9.17;8.37;;;15.90;82.60;;;14.85;74.73;98562.66;5056207;28;20843;-70
2022/05/18 03:12:53;;;;;;;8.70;8.00;;;15.90;82.80;;;14.90;74.53;98560.06;5054632;28;20933;-70
2022/05/18 03:15:20;;;;;;;8.83;8.00;;;15.90;82.80;;;14.77;74.74;98555.63;5054407;28;20433;-70
2022/05/18 03:17:47;;;;;;;9.33;8.33;;;15.80;83.10;;;14.65;75.25;98554.72;5055882;28;20507;-70
2022/05/18 03:23:33;;;;;;;10.07;8.80;;;15.70;83.20;;;14.68;75.48;98560.53;5056139;28;20543;-70
2022/05/18 03:25:47;;;;;;;10.10;9.03;;;15.70;83.50;;;14.72;75.42;98564.47;5056409;28;20947;-70
2022/05/18 03:28:14;;;;;;;9.90;9.00;;;15.70;83.50;;;14.71;75.43;98573.69;5054750;28;20440;-71
2022/05/18 03:30:42;;;;;;;9.27;8.47;;;15.70;84.00;;;14.78;75.86;98578.22;5055939;28;20528;-70
2022/05/18 03:33:09;;;;;;;9.63;8.73;;;15.70;84.30;;;14.83;74.97;98572.94;5056002;28;20927;-70
2022/05/18 03:35:36;;;;;;;9.50;8.60;;;15.80;83.60;;;14.82;75.56;98571.28;5055827;28;20495;-70
2022/05/18 03:38:05;;;;;;;9.13;8.33;;;15.70;83.80;;;14.84;75.23;98577.31;5054753;28;20430;-70
2022/05/18 03:40:35;;;;;;;9.87;8.87;;;15.80;83.80;;;14.78;75.76;98580.94;5054480;28;20475;-70
2022/05/18 03:43:03;;;;;;;9.80;8.83;;;15.70;83.80;;;14.71;76.11;98579.13;5056300;28;20529;-69
2022/05/18 03:45:30;;;;;;;8.80;8.03;;;15.70;84.00;;;14.76;76.00;98585.78;5055701;28;20468;-70
2022/05/18 03:47:58;;;;;;;10.67;9.57;;;15.70;84.10;;;14.76;75.84;98574.88;5055551;28;20453;-70
2022/05/18 03:50:28;;;;;;;10.37;9.27;;;15.70;84.20;;;14.73;76.04;98581.63;5055533;28;20486;-70
2022/05/18 03:52:56;;;;;;;15.33;9.43;;;15.70;84.40;;;14.75;76.36;98578.66;5054879;28;20449;-70
2022/05/18 03:55:25;;;;;;;10.53;9.60;;;15.70;84.80;;;14.73;76.28;98582.44;5055861;28;20547;-70
2022/05/18 03:57:53;;;;;;;11.27;9.70;;;15.70;84.80;;;14.85;76.35;98587.13;5054180;28;20433;-70
2022/05/18 04:00:21;;;;;;;11.17;10.00;;;15.80;84.70;;;14.75;76.52;98579.50;5055452;28;20461;-70
2022/05/18 04:02:48;;;;;;;11.20;10.10;;;15.80;84.90;;;14.81;76.67;98577.78;5054831;28;20477;-70
2022/05/18 04:05:18;;;;;;;12.27;10.00;;;15.80;84.90;;;14.82;76.22;98590.31;5055530;28;20535;-70
2022/05/18 04:07:45;;;;;;;11.27;10.17;;;15.80;84.90;;;14.86;76.09;98597.78;5055257;28;20438;-70
2022/05/18 04:10:12;;;;;;;11.50;10.40;;;15.80;84.80;;;14.90;75.95;98584.53;5053468;28;20865;-70
2022/05/18 04:12:42;;;;;;;10.77;9.73;;;15.80;84.80;;;14.83;76.08;98583.81;5054823;28;20499;-71
2022/05/18 04:15:11;;;;;;;11.87;9.80;;;15.80;84.50;;;14.85;76.50;98590.66;5055304;28;20491;-71
2022/05/18 04:17:38;;;;;;;10.77;9.73;;;15.90;84.90;;;15.09;75.33;98589.94;5054878;28;20442;-71
2022/05/18 04:20:07;;;;;;;11.37;10.27;;;16.00;84.40;;;15.12;75.41;98589.50;5055460;28;20445;-71
2022/05/18 04:22:34;;;;;;;12.60;10.03;;;16.10;84.30;;;15.20;75.17;98591.88;5055142;28;20448;-71
2022/05/18 04:25:01;;;;;;;11.83;10.60;;;16.20;83.90;;;15.29;74.82;98582.31;5053676;28;20524;-71
2022/05/18 04:27:29;;;;;;;11.90;10.80;;;16.30;83.80;;;15.46;73.55;98592.53;5052777;28;20459;-72
2022/05/18 04:29:58;;;;;;;12.03;10.60;;;16.40;82.90;;;15.62;73.18;98598.38;5054905;28;20443;-72
2022/05/18 04:32:25;;;;;;;14.90;11.00;;;16.50;82.60;;;15.64;72.65;98590.78;5055153;28;20492;-71
2022/05/18 04:34:52;;;;;;;19.83;11.10;;;16.70;82.20;;;15.72;71.75;98555.06;5052994;28;20507;-72
2022/05/18 04:37:21;;;;;;;14.17;10.30;;;16.90;82.10;;;16.06;71.44;98587.16;5069389;28;20454;-72
2022/05/18 04:39:48;;;;;;;11.97;10.80;;;17.20;80.90;;;16.66;69.32;98591.47;5062331;28;20619;-74
2022/05/18 04:42:16;;;;;;;12.10;9.33;;;17.50;80.80;;;16.71;68.76;98577.13;5061656;28;20545;-73
2022/05/18 04:44:43;;;;;;;12.60;10.10;;;17.70;80.30;;;16.90;67.54;98602.31;5055901;28;20433;-73
2022/05/18 04:47:12;;;;;;;12.00;10.90;;;17.80;79.00;;;16.64;68.17;98610.00;5059680;28;20533;-73
2022/05/18 04:49:39;;;;;;;12.20;11.07;;;17.70;78.90;;;16.50;68.68;98619.50;5058286;28;20477;-72
2022/05/18 04:52:07;;;;;;;12.00;10.90;;;17.50;79.00;;;16.52;69.63;98628.28;5056647;28;20433;-71
2022/05/18 04:54:35;;;;;;;11.63;10.60;;;17.50;79.90;;;16.69;68.63;98634.63;5055354;28;20501;-71
2022/05/18 04:57:03;;;;;;;11.77;10.50;;;17.50;79.50;;;16.82;68.62;98627.25;5057136;28;20444;-75
2022/05/18 04:59:30;;;;;;;10.70;9.37;;;17.60;79.50;;;17.08;67.40;98630.53;5054563;28;20477;-77
2022/05/18 05:01:57;;;;;;;11.23;10.13;;;17.80;79.40;;;16.94;66.97;98608.13;5070588;28;20491;-71
2022/05/18 05:04:26;;;;;;;12.13;10.90;;;17.80;78.60;;;16.75;68.24;98642.94;5053228;28;20997;-69
2022/05/18 05:06:53;;;;;;;11.70;10.60;;;17.80;79.20;;;16.87;68.30;98629.28;5054147;28;20496;-69
2022/05/18 05:09:22;;;;;;;11.27;10.37;;;17.70;79.10;;;16.78;67.96;98631.56;5069289;28;20433;-70
2022/05/18 05:11:49;;;;;;;11.53;10.33;;;17.80;78.50;;;16.92;68.17;98637.56;5053931;28;20447;-69
2022/05/18 05:14:17;;;;;;;11.60;10.53;;;17.80;78.80;;;16.88;67.73;98634.47;5052280;28;20532;-70
2022/05/18 05:16:44;;;;;;;12.17;11.10;;;17.80;78.60;;;16.95;68.23;98643.38;5054075;28;20446;-70
2022/05/18 05:19:11;;;;;;;11.90;10.27;;;17.90;78.80;;;16.94;67.57;98652.63;5054089;28;20532;-76
2022/05/18 05:21:42;;;;;;;11.60;10.50;;;17.90;78.20;;;16.88;67.63;98653.56;5052830;28;20519;-74
2022/05/18 05:24:10;;;;;;;10.97;10.07;;;17.90;78.20;;;17.05;67.18;98656.41;5053831;28;20499;-74
2022/05/18 05:26:38;;;;;;;11.83;10.63;;;17.90;78.20;;;17.07;66.87;98659.72;5054095;28;20476;-75
2022/05/18 05:29:06;;;;;;;10.80;9.83;;;18.10;78.10;;;16.99;67.86;98655.47;5052679;28;20470;-75
2022/05/18 05:31:33;;;;;;;11.50;10.60;;;18.00;78.00;;;17.33;66.68;98670.31;5052113;28;20857;-75
2022/05/18 05:34:00;;;;;;;10.93;10.03;;;18.20;77.70;;;17.54;65.58;98666.91;5054328;28;20445;-76
2022/05/18 05:36:29;;;;;;;11.43;10.27;;;18.50;77.20;;;17.78;64.86;98666.75;5054230;28;20438;-74
2022/05/18 05:38:57;;;;;;;11.70;10.47;;;18.80;76.70;;;18.18;63.66;98672.38;5052584;28;20466;-75
2022/05/18 05:41:26;;;;;;;10.53;9.67;;;19.10;76.20;;;18.69;62.09;98664.88;5053170;28;20434;-74
2022/05/18 05:43:54;;;;;;;10.77;9.80;;;19.80;75.00;;;19.85;58.53;98670.59;5070267;28;20762;-74
2022/05/18 05:46:23;;;;;;;10.47;9.47;;;20.90;72.30;;;20.14;56.69;98664.81;5053267;28;20472;-74
2022/05/18 05:48:50;;;;;;;10.27;9.37;;;21.60;69.70;;;20.55;55.99;98667.84;5054902;28;20467;-68
2022/05/18 05:51:18;;;;;;;9.60;8.90;;;21.90;68.70;;;20.57;55.47;98673.91;5052101;28;20527;-68
2022/05/18 05:53:47;;;;;;;10.67;9.63;;;22.20;67.40;;;20.98;54.81;98677.94;5053370;28;20476;-70
2022/05/18 05:56:16;;;;;;;10.50;9.50;;;22.40;67.10;;;20.85;54.88;98680.13;5052967;28;20479;-68
2022/05/18 05:58:44;;;;;;;10.37;9.57;;;22.40;66.40;;;19.96;56.94;98680.59;5051451;28;20438;-69
2022/05/18 06:01:13;;;;;;;11.20;10.10;;;21.70;66.60;;;19.50;58.11;98679.03;5053230;28;20920;-69
2022/05/18 06:03:41;;;;;;;10.80;9.83;;;21.20;67.30;;;19.90;57.54;98676.09;5051033;28;20961;-71
2022/05/18 06:06:10;;;;;;;11.80;9.70;;;21.10;68.10;;;20.74;54.76;98673.69;5052895;28;20555;-73
2022/05/18 06:08:38;;;;;;;10.37;9.47;;;22.00;66.30;;;20.57;55.65;98673.91;5053803;28;20438;-72
2022/05/18 06:11:06;;;;;;;10.40;9.60;;;22.40;65.80;;;20.57;55.22;98673.06;5053293;28;20520;-70
2022/05/18 06:13:35;;;;;;;11.80;10.47;;;22.20;65.70;;;19.59;57.99;98673.06;5052230;28;20766;-69
2022/05/18 06:16:03;;;;;;;11.60;10.40;;;21.30;66.70;;;19.36;59.10;98675.03;5051850;28;20445;-70
2022/05/18 06:18:32;;;;;;;11.27;9.93;;;20.60;68.20;;;18.82;61.41;98687.50;5052588;28;20776;-70
2022/05/18 06:20:59;;;;;;;12.00;10.90;;;20.10;69.50;;;18.59;62.04;98688.56;5052228;28;20495;-70
2022/05/18 06:23:27;;;;;;;10.90;9.80;;;19.90;70.10;;;18.94;61.12;98699.16;5053413;28;20932;-71
2022/05/18 06:26:00;;;;;;;12.17;10.90;;;19.80;70.60;;;18.67;62.09;98699.09;5053518;28;20998;-71
2022/05/18 06:28:27;;;;;;;11.73;10.47;;;19.70;71.00;;;18.53;62.81;98706.81;5053205;28;20433;-71
2022/05/18 06:30:55;;;;;;;11.80;10.70;;;19.60;71.50;;;18.37;63.00;98711.22;5053132;28;20976;-71
2022/05/18 06:33:23;;;;;;;15.00;10.27;;;19.50;71.60;;;18.36;63.22;98707.66;5053293;28;20927;-71
2022/05/18 06:35:52;;;;;;;13.13;11.00;;;19.40;71.90;;;18.36;63.16;98715.03;5052993;28;20984;-70
2022/05/18 06:38:20;;;;;;;11.53;10.00;;;19.40;72.00;;;18.72;62.39;98722.94;5051415;28;20441;-70
2022/05/18 06:43:32;;;;;;;12.07;10.77;;;19.70;71.90;;;19.30;60.44;98711.66;5054002;28;20523;-70
2022/05/18 06:46:03;;;;;;;10.77;9.83;;;20.10;71.60;;;19.46;60.33;98727.19;5052857;28;20934;-69
2022/05/18 06:48:31;;;;;;;12.13;10.93;;;20.30;71.40;;;19.27;60.56;98732.19;5053051;28;20536;-70
2022/05/18 06:50:57;;;;;;;11.37;10.40;;;20.30;70.80;;;19.00;61.09;98732.09;5070824;28;20484;-70
2022/05/18 06:53:25;;;;;;;12.23;11.00;;;20.10;70.80;;;19.04;61.61;98730.53;5054873;28;20483;-70
2022/05/18 06:55:52;;;;;;;10.10;9.30;;;20.10;71.40;;;19.28;60.76;98728.38;5072205;28;20433;-70
2022/05/18 06:58:20;;;;;;;12.33;11.10;;;20.10;71.20;;;19.37;60.58;98720.53;5056506;28;20539;-70
2022/05/18 07:00:47;;;;;;;14.50;10.53;;;20.30;71.20;;;19.10;61.26;98721.28;5055018;28;20486;-69
2022/05/18 07:03:16;;;;;;;10.90;10.00;;;20.10;71.10;;;19.35;60.57;98715.28;5056054;28;20443;-69
2022/05/18 07:05:45;;;;;;;11.60;10.57;;;20.20;71.30;;;19.92;58.84;98704.13;5056335;28;20458;-70
2022/05/18 07:08:12;;;;;;;11.27;10.17;;;20.50;70.90;;;19.56;60.19;98712.78;5049644;28;20901;-71
2022/05/18 07:10:39;;;;;;;11.20;10.27;;;20.60;70.80;;;19.58;59.53;98707.06;5036429;28;20474;-70
2022/05/18 07:13:07;;;;;;;12.10;10.00;;;20.40;70.50;;;19.82;59.19;98719.38;5036825;28;20529;-70
2022/05/18 07:15:34;;;;;;;10.70;9.70;;;20.60;70.60;;;19.82;59.16;98721.28;5034660;28;20847;-70
2022/05/18 07:18:01;;;;;;;10.47;9.67;;;20.70;70.00;;;20.18;58.04;98713.41;5036411;28;20901;-70
2022/05/18 07:20:30;;;;;;;10.43;9.40;;;21.00;69.80;;;20.82;56.18;98719.06;5064976;28;20507;-70
2022/05/18 07:22:58;;;;;;;9.90;9.10;;;21.40;69.30;;;20.66;56.17;98710.72;5055895;28;20549;-70
2022/05/18 07:25:25;;;;;;;9.83;8.97;;;21.50;68.90;;;21.25;55.54;98716.28;5054873;28;20490;-69
2022/05/18 07:27:52;;;;;;;9.87;8.97;;;21.80;68.80;;;20.88;56.21;98715.28;5056345;28;20504;-70
2022/05/18 07:30:19;;;;;;;12.27;10.73;;;21.80;68.30;;;20.56;56.49;98709.81;5055595;28;20472;-72
2022/05/18 07:32:46;;;;;;;9.63;8.73;;;21.70;67.80;;;21.17;54.99;98705.78;5056007;28;20454;-70
2022/05/18 07:35:13;;;;;;;10.20;9.20;;;21.90;67.90;;;21.68;53.54;98699.66;5055086;28;20456;-70
2022/05/18 07:37:42;;;;;;;10.70;9.90;;;22.30;67.30;;;22.17;52.46;98705.72;5055677;28;20491;-71
2022/05/18 07:40:10;;;;;;;10.50;8.90;;;22.90;66.60;;;21.77;53.15;98700.78;5055704;28;20480;-70
2022/05/18 07:42:38;;;;;;;9.63;8.67;;;22.90;65.70;;;21.74;53.97;98694.97;5070806;28;20450;-71
2022/05/18 07:45:07;;;;;;;8.93;8.27;;;22.70;66.40;;;21.68;53.47;98696.91;5071012;28;20546;-70
2022/05/18 07:47:35;;;;;;;9.13;8.43;;;22.70;66.00;;;21.77;53.39;98705.44;5055553;28;20521;-75
2022/05/18 07:50:02;;;;;;;8.90;8.10;;;22.70;65.90;;;21.69;53.04;98709.53;5070846;28;20511;-73
2022/05/18 07:52:30;;;;;;;8.90;8.10;;;22.60;65.40;;;21.64;53.87;98701.25;5055422;28;20455;-72
2022/05/18 07:54:58;;;;;;;10.43;9.00;;;22.50;66.00;;;21.55;54.10;98709.22;5055540;28;20435;-72
2022/05/18 07:57:25;;;;;;;9.50;8.80;;;22.50;65.90;;;21.53;54.00;98705.88;5055666;28;20435;-73
2022/05/18 07:59:59;;;;;;;9.47;8.50;;;22.30;66.50;;;21.49;53.52;98711.13;5055011;28;20551;-72
2022/05/18 08:02:29;;;;;;;8.43;7.70;;;22.30;65.50;;;21.28;53.17;98712.13;5055230;28;20485;-72
2022/05/18 08:04:56;;;;;;;7.33;6.83;;;22.20;64.90;;;21.47;52.88;98705.06;5037174;28;20448;-72
2022/05/18 08:07:23;;;;;;;8.70;7.90;;;22.20;64.60;;;21.39;52.49;98704.78;5070264;28;20475;-73
2022/05/18 08:15:22;;;;;;;7.97;7.37;;;21.90;64.50;;;21.03;53.77;98708.22;5054296;28;20986;-72
2022/05/18 08:17:50;;;;;;;8.77;8.10;;;22.10;64.90;;;21.13;53.45;98715.66;5054887;28;20565;-71
2022/05/18 08:20:22;;;;;;;8.23;7.47;;;22.10;64.50;;;21.57;52.76;98725.44;5054921;28;20517;-73
2022/05/18 08:22:49;;;;;;;7.67;6.97;;;22.30;64.60;;;21.83;51.06;98714.53;5054761;28;20437;-72
2022/05/18 08:25:16;;;;;;;8.10;7.47;;;22.60;63.50;;;22.28;50.21;98725.81;5070482;28;20483;-71
2022/05/18 08:27:47;;;;;;;9.70;8.87;;;22.90;63.10;;;22.16;50.30;98717.84;5070100;28;20495;-73
2022/05/18 08:30:18;;;;;;;8.40;6.80;;;23.10;62.60;;;22.34;49.50;98725.53;5053845;28;20446;-72
2022/05/18 08:32:45;;;;;;;7.13;6.63;;;23.20;62.00;;;21.93;50.54;98725.53;5053635;28;20978;-73
2022/05/18 08:35:14;;;;;;;7.17;6.77;;;23.00;61.90;;;22.07;50.89;98725.81;5054729;28;20453;-76
2022/05/18 08:37:44;;;;;;;7.20;6.60;;;22.90;62.80;;;22.03;50.64;98728.28;5050535;28;20456;-74
2022/05/18 08:40:43;;;;;;;7.97;7.23;;;22.90;62.60;;;23.32;47.42;98720.97;5054625;28;20433;-75
2022/05/18 08:43:20;;;;;;;8.00;7.20;;;23.70;62.10;;;22.99;46.92;98679.19;5055939;28;20929;-76
2022/05/18 08:46:04;;;;;;;6.57;6.07;;;24.10;60.60;;;23.66;46.32;98714.72;5053873;28;20980;-74
2022/05/18 08:48:51;;;;;;;6.90;6.30;;;24.10;60.10;;;23.42;46.70;98717.31;5054766;28;20441;-72
2022/05/18 08:51:39;;;;;;;6.93;6.40;;;24.20;59.80;;;23.01;46.53;98721.06;5054254;28;20461;-71
2022/05/18 08:54:28;;;;;;;7.33;6.73;;;24.10;59.20;;;22.77;47.52;98716.16;5054288;28;20444;-72
2022/05/18 08:56:58;;;;;;;7.93;7.20;;;23.60;59.50;;;22.61;48.33;98727.19;5054781;28;20835;-73
2022/05/18 08:59:31;;;;;;;7.13;6.53;;;23.50;59.90;;;22.63;48.08;98716.72;5069548;28;20439;-73
2022/05/18 09:02:02;;;;;;;11.77;7.30;;;23.40;59.80;;;22.59;48.25;98723.91;5054345;28;20447;-74
2022/05/18 09:04:44;;;;;;;6.50;6.00;;;23.40;59.90;;;22.60;48.20;98720.03;5053901;28;20897;-74
2022/05/18 09:07:16;;;;;;;6.87;6.37;;;23.30;59.70;;;22.22;49.07;98723.06;5053155;28;21013;-75
2022/05/18 09:12:37;;;;;;;8.13;7.47;;;23.10;60.20;;;22.73;47.52;98721.38;5054086;28;20912;-76
2022/05/18 09:15:08;;;;;;;7.10;6.60;;;23.40;59.60;;;22.33;49.11;98707.38;5069627;28;20448;-76
2022/05/18 09:17:43;;;;;;;6.53;6.03;;;23.20;60.30;;;22.14;48.33;98714.53;5054100;28;20554;-76
2022/05/18 09:20:19;;;;;;;7.17;6.63;;;23.10;59.30;;;22.20;48.71;98710.69;5054855;28;20476;-77
2022/05/18 09:23:11;;;;;;;6.07;5.57;;;22.80;59.70;;;22.36;48.14;98717.00;5054657;28;20500;-76
2022/05/18 09:25:54;;;;;;;8.10;5.80;;;23.00;59.50;;;22.50;47.95;98720.03;5069204;28;20520;-75
2022/05/18 09:28:43;;;;;;;6.50;6.00;;;23.20;59.70;;;22.89;46.16;98719.44;5052547;28;20489;-76
2022/05/18 09:31:30;;;;;;;5.93;5.43;;;23.50;58.80;;;22.84;46.27;98710.34;5052452;28;20441;-75
2022/05/18 09:34:19;;;;;;;5.47;4.97;;;23.60;58.40;;;23.06;45.34;98707.25;5053999;28;20920;-75
2022/05/18 09:37:11;;;;;;;5.20;4.70;;;23.70;57.50;;;23.30;45.10;98712.16;5053053;28;20522;-75
2022/05/18 09:39:44;;;;;;;6.47;5.53;;;23.80;57.50;;;23.55;44.59;98708.44;5069700;28;20443;-76
2022/05/18 09:42:16;;;;;;;10.20;4.17;;;24.10;57.40;;;23.40;43.72;98705.75;5054181;28;20468;-76
2022/05/18 09:44:50;;;;;;;6.90;5.00;;;24.20;56.70;;;23.19;42.63;98708.56;5053880;28;20489;-75
2022/05/18 09:47:21;;;;;;;4.80;4.40;;;24.10;55.20;;;23.23;43.75;98714.34;5052846;28;20465;-76
2022/05/18 09:49:52;;;;;;;9.57;4.60;;;24.00;55.80;;;22.98;43.50;98716.91;5053242;28;20528;-75
2022/05/18 09:52:26;;;;;;;5.37;4.87;;;23.80;55.30;;;23.23;42.79;98708.84;5052286;28;20518;-76
2022/05/18 09:54:55;;;;;;;4.20;3.90;;;23.90;55.30;;;23.11;41.86;98706.41;5069609;28;20443;-75
2022/05/18 09:57:28;;;;;;;5.47;4.97;;;23.90;54.00;;;23.19;43.05;98705.81;5052820;28;20813;-75
2022/05/18 09:59:58;;;;;;;4.60;4.30;;;24.00;54.80;;;22.82;44.10;98707.06;5053725;28;20434;-75
2022/05/18 10:08:01;;;;;;;4.67;4.27;;;23.70;54.60;;;23.04;42.00;98693.75;5053367;28;20462;-76
2022/05/18 10:10:32;;;;;;;6.33;4.10;;;23.70;53.80;;;23.29;41.42;98689.25;5051813;28;20531;-77
2022/05/18 10:13:05;;;;;;;5.63;5.10;;;23.90;53.70;;;23.46;43.42;98694.44;5052521;28;20518;-75
2022/05/18 10:15:37;;;;;;;5.30;4.80;;;24.00;55.30;;;23.66;42.68;98689.88;5051963;28;20541;-75
2022/05/18 10:18:18;;;;;;;5.13;4.70;;;24.20;55.10;;;23.76;42.33;98683.47;5053486;28;20427;-75
2022/05/18 10:21:05;;;;;;;5.83;5.33;;;24.40;54.70;;;24.02;42.17;98683.28;5052104;28;20477;-77
2022/05/18 10:23:37;;;;;;;4.70;4.30;;;24.60;54.70;;;24.19;41.63;98682.91;5069580;28;20763;-76
2022/05/18 10:26:10;;;;;;;4.70;4.30;;;24.80;54.40;;;23.57;41.80;98678.63;5056279;28;20520;-76
2022/05/18 10:28:43;;;;;;;4.30;4.00;;;24.50;53.70;;;24.09;41.32;98678.28;5055664;28;20607;-76
2022/05/18 10:31:26;;;;;;;5.87;4.40;;;24.70;53.90;;;24.33;40.57;98680.28;5055912;28;20443;-76
2022/05/18 10:34:24;;;;;;;6.00;4.20;;;25.00;53.40;;;24.78;39.73;98677.34;5058030;28;20543;-76
2022/05/18 10:36:55;;;;;;;5.50;5.00;;;25.30;53.20;;;24.89;39.98;98681.66;5057642;28;20471;-75
2022/05/18 10:39:39;;;;;;;7.10;4.40;;;25.50;53.20;;;24.96;39.08;98669.44;5056172;28;20441;-76
2022/05/18 10:42:17;;;;;;;5.30;4.33;;;25.60;52.70;;;25.00;38.78;98670.50;5075499;28;20788;-75
2022/05/18 10:44:45;;;;;;;5.07;4.70;;;25.70;52.40;;;25.17;39.45;98668.06;5077544;28;20490;-77
2022/05/18 10:47:28;;;;;;;4.77;4.37;;;25.80;52.80;;;25.13;39.07;98661.47;5057265;28;20463;-74
2022/05/18 10:50:24;;;;;;;4.70;4.30;;;26.00;52.50;;;25.49;38.75;98667.66;5055560;28;20440;-76